This demonstration page uses our WeatherBlox Daily Observations layout. Learn more.

Left ArrowRight Arrow

36.19886, -115.1175

Hourly Observations for March 2, 2021

Temp ( °F °C ) Dew Point ( °F °C ) Humidity (%) Winds ( mph kmh ) Pressure ( in mb ) Visibility ( mi km ) Precip ( " mm )
12:53 am 00:53 Clear 43 6.1 10 -12.2 26 26 NW 6 9 30.18 1022 10 16.0934 0 0
1:53 am 01:53 Clear 43 6.1 9 -12.8 25 25 WNW 7 11 30.15 1021 10 16.0934 0 0
2:53 am 02:53 Clear 42 5.6 9 -12.8 25 25 NW 6 9 30.14 1021 10 16.0934 0 0
3:53 am 03:53 Clear 41 5 7 -13.9 24 24 WNW 6 9 30.13 1020 10 16.0934 0 0
4:53 am 04:53 Clear 41 5 10 -12.2 28 28 WNW 6 9 30.13 1020 10 16.0934 0 0
5:53 am 05:53 Clear 40 4.4 9 -12.8 28 28 WNW 6 9 30.13 1020 10 16.0934 0 0
6:53 am 06:53 Sunny 41 5 9 -12.8 27 27 WNW 3 6 30.13 1020 10 16.0934 0 0
7:53 am 07:53 Sunny 49 9.4 8 -13.3 19 19 NW 5 7 30.13 1020 10 16.0934 0 0
8:53 am 08:53 Sunny 54 12.2 8 -13.3 16 16 Calm 30.13 1020 10 16.0934 0 0
9:53 am 09:53 Sunny 56 13.3 6 -14.4 13 13 SSE 3 6 30.11 1020 10 16.0934 0 0
10:53 am 10:53 Sunny 61 16.1 6 -14.4 11 11 SSE 3 6 30.09 1019 10 16.0934 0 0
11:53 am 11:53 Sunny 63 17.2 5 -15 10 10 E 5 7 30.05 1018 10 16.0934 0 0
12:53 pm 12:53 Sunny 66 18.9 3 -16.1 8 8 VRB 3 6 30 1016 10 16.0934 0 0
1:53 pm 13:53 Sunny 67 19.4 2 -16.7 7 7 Calm 29.96 1014 10 16.0934 0 0
2:53 pm 14:53 Sunny 68 20 3 -16.1 7 7 Calm 29.93 1013 10 16.0934 0 0
3:53 pm 15:53 Sunny 68 20 5 -15 8 8 ENE 3 6 29.9 1013 10 16.0934 0 0
4:53 pm 16:53 Sunny 67 19.4 5 -15 8 8 SE 5 7 29.88 1012 10 16.0934 0 0
5:53 pm 17:53 Clear 66 18.9 6 -14.4 9 9 SSW 5 7 29.88 1012 10 16.0934 0 0
6:53 pm 18:53 Clear 61 16.1 8 -13.3 12 12 WNW 3 6 29.9 1013 10 16.0934 0 0
7:53 pm 19:53 Clear 57 13.9 11 -11.7 16 16 W 3 6 29.9 1013 10 16.0934 0 0
8:53 pm 20:53 Clear 55 12.8 12 -11.1 18 18 WNW 6 9 29.9 1013 10 16.0934 0 0
9:53 pm 21:53 Clear 52 11.1 12 -11.1 20 20 W 6 9 29.91 1013 10 16.0934 0 0
10:53 pm 22:53 Clear 49 9.4 11 -11.7 21 21 WNW 6 9 29.91 1013 10 16.0934 0 0
11:53 pm 23:53 Clear 48 8.9 12 -11.1 23 23 WNW 7 11 29.9 1013 10 16.0934 0 0

Powered by AerisWeather